Time;durP1;ratioP1;P1;durP2;ratioP2;P2;SDS_P1;SDS_P2;PMS_P1;PMS_P2;Temp;Humidity;BMP_temperature;BMP_pressure;BME280_temperature;BME280_humidity;BME280_pressure;Samples;Min_cycle;Max_cycle;Signal;HPM_P1;HPM_P2
2023/01/17 00:01:09;;;;;;;80.65;38.55;;;;;;;3.02;100.00;99215.34;5092079;28;20115;-30
2023/01/17 00:09:51;;;;;;;76.35;31.42;;;;;;;2.55;100.00;99183.34;5091892;28;20043;-31
2023/01/17 00:11:53;;;;;;;88.40;40.07;;;;;;;2.86;100.00;99207.72;5092099;28;20035;-29
2023/01/17 00:14:18;;;;;;;80.47;26.58;;;;;;;2.72;100.00;99215.53;5091509;28;20278;-29
2023/01/17 00:16:43;;;;;;;84.10;30.35;;;;;;;2.58;100.00;99217.22;5091633;28;20047;-29
2023/01/17 01:33:36;;;;;;;58.65;21.05;;;;;;;1.70;100.00;99152.53;5090461;28;20089;-32
2023/01/17 01:36:01;;;;;;;63.33;21.45;;;;;;;1.88;100.00;99145.06;5089644;28;20067;-30
2023/01/17 01:38:27;;;;;;;71.70;21.63;;;;;;;1.77;100.00;99140.25;5090487;28;20032;-28
2023/01/17 01:40:54;;;;;;;61.90;20.17;;;;;;;1.74;100.00;99145.91;5071708;28;20032;-30
2023/01/17 01:43:40;;;;;;;79.97;23.40;;;;;;;1.86;100.00;99135.69;5071826;28;20427;-30
2023/01/17 01:46:08;;;;;;;84.07;23.83;;;;;;;1.96;100.00;99137.06;5089945;28;20028;-31
2023/01/17 01:48:42;;;;;;;83.72;23.58;;;;;;;1.90;100.00;99129.91;5072030;28;20024;-31
2023/01/17 01:51:14;;;;;;;68.18;20.83;;;;;;;1.91;100.00;99070.25;5071798;28;20055;-32
2023/01/17 01:53:44;;;;;;;71.38;26.48;;;;;;;1.99;100.00;99089.34;5089875;28;20056;-31
2023/01/17 01:56:12;;;;;;;101.82;28.20;;;;;;;2.22;100.00;99104.13;5070629;28;20035;-31
2023/01/17 01:58:40;;;;;;;89.22;32.97;;;;;;;2.12;100.00;99082.56;5089114;28;20032;-30
2023/01/17 02:01:07;;;;;;;99.80;33.38;;;;;;;2.13;100.00;99094.75;5089002;28;20105;-28
2023/01/17 02:03:34;;;;;;;82.38;24.35;;;;;;;2.15;100.00;99095.38;5089580;28;20064;-30
2023/01/17 02:06:40;;;;;;;83.63;26.48;;;;;;;2.37;100.00;99107.50;5089717;28;20032;-30
2023/01/17 02:09:08;;;;;;;73.53;27.40;;;;;;;2.03;100.00;99062.69;5051191;28;20510;-30
2023/01/17 02:11:36;;;;;;;84.18;26.45;;;;;;;2.12;100.00;99087.84;5071199;28;20534;-29
2023/01/17 02:14:02;;;;;;;67.53;22.75;;;;;;;2.27;100.00;99085.97;5071143;28;20093;-30
2023/01/17 02:16:52;;;;;;;85.43;23.75;;;;;;;2.51;100.00;99097.88;5071134;28;20043;-29
2023/01/17 02:19:49;;;;;;;75.57;22.73;;;;;;;2.12;100.00;99108.88;5089554;28;20072;-29
2023/01/17 02:22:33;;;;;;;58.87;22.53;;;;;;;2.17;100.00;99114.41;5071347;28;20032;-28
2023/01/17 02:25:30;;;;;;;57.67;21.17;;;;;;;2.09;100.00;99119.78;5089074;28;20085;-29
2023/01/17 02:28:25;;;;;;;106.82;32.08;;;;;;;1.95;100.00;99119.63;5088906;28;20048;-29
2023/01/17 02:30:56;;;;;;;116.57;30.23;;;;;;;1.91;100.00;99115.75;5071238;28;20491;-29
2023/01/17 02:33:41;;;;;;;47.88;20.85;;;;;;;1.94;100.00;99107.50;5071110;28;20090;-30
2023/01/17 02:36:18;;;;;;;56.80;21.98;;;;;;;2.03;100.00;99116.09;5088764;28;20043;-29
2023/01/17 02:39:06;;;;;;;70.45;21.27;;;;;;;1.91;100.00;99128.91;5089460;28;20096;-29
2023/01/17 02:41:35;;;;;;;;;;;;;;;1.92;100.00;99114.75;5089450;28;20073;-29
2023/01/17 02:44:01;;;;;;;73.32;21.25;;;;;;;1.87;100.00;99098.72;5089045;28;19919;-32
2023/01/17 02:46:26;;;;;;;74.57;21.92;;;;;;;2.04;100.00;99114.25;5070747;28;20130;-29
2023/01/17 02:48:54;;;;;;;72.60;24.25;;;;;;;2.01;100.00;99082.06;5088828;28;20111;-30
2023/01/17 02:51:58;;;;;;;72.32;21.58;;;;;;;1.84;100.00;99075.44;5089010;28;20028;-29
2023/01/17 02:55:06;;;;;;;68.97;23.77;;;;;;;1.55;100.00;99087.66;5088904;28;20031;-30
2023/01/17 02:57:56;;;;;;;39.63;19.80;;;;;;;1.82;100.00;99093.22;5070625;28;20043;-30
2023/01/17 03:00:37;;;;;;;56.83;22.25;;;;;;;1.88;100.00;99066.19;5088853;28;20028;-28
2023/01/17 03:03:33;;;;;;;125.10;38.30;;;;;;;1.91;100.00;99059.72;5088853;28;20032;-31
2023/01/17 03:06:10;;;;;;;92.85;24.42;;;;;;;1.91;100.00;99059.72;5088954;28;20117;-29
2023/01/17 03:08:40;;;;;;;69.70;22.65;;;;;;;1.83;100.00;99052.78;5090178;28;20098;-31
2023/01/17 03:11:09;;;;;;;36.55;17.45;;;;;;;1.75;100.00;99089.69;5074784;28;20541;-34
2023/01/17 03:13:35;;;;;;;51.50;20.75;;;;;;;1.79;100.00;99078.59;5092626;28;20112;-29
2023/01/17 03:16:07;;;;;;;52.30;20.48;;;;;;;1.73;100.00;99068.03;5092772;28;20744;-30
2023/01/17 03:18:33;;;;;;;47.40;21.60;;;;;;;1.72;100.00;99040.94;5074526;28;20027;-30
2023/01/17 03:20:58;;;;;;;50.60;20.10;;;;;;;1.88;100.00;99071.44;5092745;28;20540;-32
2023/01/17 03:23:24;;;;;;;57.42;20.92;;;;;;;1.98;100.00;99077.22;5092546;28;20123;-30
2023/01/17 03:25:49;;;;;;;51.88;21.17;;;;;;;2.01;100.00;99050.53;5074071;28;20472;-29
2023/01/17 03:28:15;;;;;;;61.10;24.23;;;;;;;2.14;100.00;99054.28;5074242;28;20024;-28
2023/01/17 03:30:40;;;;;;;65.00;21.13;;;;;;;2.20;100.00;99064.03;5074082;28;20036;-30
2023/01/17 03:33:05;;;;;;;46.25;19.45;;;;;;;2.08;100.00;99040.06;5074414;28;20489;-30
2023/01/17 03:35:31;;;;;;;60.10;20.10;;;;;;;2.09;100.00;99068.00;5091941;28;20109;-30
2023/01/17 03:37:56;;;;;;;58.58;28.40;;;;;;;2.17;100.00;99054.72;5074109;28;20065;-31
2023/01/17 03:40:21;;;;;;;161.07;74.78;;;;;;;1.88;100.00;99039.91;5092288;28;20081;-29
2023/01/17 03:42:47;;;;;;;157.75;82.72;;;;;;;2.11;100.00;99037.06;5092185;28;20106;-29
2023/01/17 03:45:12;;;;;;;75.10;43.28;;;;;;;1.95;100.00;99046.00;5091945;28;20024;-37
2023/01/17 03:47:38;;;;;;;86.55;56.17;;;;;;;2.17;100.00;99038.94;5091998;28;20028;-31
2023/01/17 03:50:04;;;;;;;92.13;59.72;;;;;;;1.94;100.00;99012.84;5092436;28;20450;-31
2023/01/17 03:52:29;;;;;;;85.40;45.75;;;;;;;1.85;100.00;99003.44;5073786;28;20052;-30
2023/01/17 03:54:55;;;;;;;69.85;40.30;;;;;;;1.80;100.00;99016.34;5091995;28;20468;-31
2023/01/17 03:57:20;;;;;;;58.92;34.97;;;;;;;2.03;100.00;99010.09;5091613;28;20073;-33
2023/01/17 03:59:46;;;;;;;53.13;25.40;;;;;;;1.86;100.00;99015.59;5073758;28;20036;-32
2023/01/17 04:02:11;;;;;;;127.35;75.20;;;;;;;1.87;100.00;99005.91;5092096;28;20765;-34
2023/01/17 04:04:37;;;;;;;69.38;31.63;;;;;;;1.87;100.00;99009.34;5073796;28;20614;-31
2023/01/17 04:07:02;;;;;;;85.32;33.75;;;;;;;1.87;100.00;98996.19;5092012;28;20110;-29
2023/01/17 04:09:32;;;;;;;94.90;44.38;;;;;;;1.78;100.00;98956.06;5091513;28;20103;-30
2023/01/17 04:11:58;;;;;;;49.28;24.27;;;;;;;1.69;100.00;98982.66;5091835;28;20098;-31
2023/01/17 04:14:23;;;;;;;61.60;26.70;;;;;;;2.05;100.00;98990.47;5091420;28;20476;-30
2023/01/17 04:16:49;;;;;;;46.90;23.35;;;;;;;2.06;100.00;98988.66;5091826;28;20016;-30
2023/01/17 04:19:14;;;;;;;69.32;27.08;;;;;;;1.97;100.00;98970.38;5073039;28;20066;-28
2023/01/17 04:21:39;;;;;;;48.97;22.77;;;;;;;2.08;100.00;98989.28;5090377;28;20031;-30
2023/01/17 04:24:05;;;;;;;46.95;23.63;;;;;;;2.15;100.00;98982.25;5091356;28;20036;-29
2023/01/17 04:26:31;;;;;;;70.63;38.85;;;;;;;2.28;100.00;98998.13;5091564;28;20020;-30
2023/01/17 04:28:56;;;;;;;216.23;150.73;;;;;;;2.34;100.00;98994.72;5091286;28;20024;-29
2023/01/17 04:31:21;;;;;;;50.15;29.83;;;;;;;2.14;100.00;99007.72;5073014;28;20399;-32
2023/01/17 04:33:47;;;;;;;72.28;41.88;;;;;;;1.91;100.00;99007.94;5073139;28;20031;-29
2023/01/17 04:36:12;;;;;;;40.40;20.23;;;;;;;1.74;100.00;98982.94;5090917;28;20052;-29
2023/01/17 04:38:38;;;;;;;38.97;19.20;;;;;;;1.75;100.00;99000.31;5091316;28;20024;-26
2023/01/17 04:41:03;;;;;;;33.35;18.25;;;;;;;1.88;100.00;98989.94;5091054;28;20024;-26
2023/01/17 04:43:28;;;;;;;33.10;17.17;;;;;;;1.95;100.00;98977.66;5090761;28;20459;-28
2023/01/17 04:45:57;;;;;;;29.65;16.45;;;;;;;1.99;100.00;98973.63;5091468;28;20059;-30
2023/01/17 04:48:26;;;;;;;42.83;22.25;;;;;;;2.08;100.00;98976.13;5091679;28;20032;-29
2023/01/17 04:50:57;;;;;;;;;;;;;;;1.91;100.00;98971.16;5091470;28;20453;-31
2023/01/17 04:53:22;;;;;;;31.13;17.30;;;;;;;1.85;100.00;98982.41;5072480;28;19950;-32
2023/01/17 04:55:48;;;;;;;46.40;25.02;;;;;;;1.70;100.00;98953.59;5072581;28;20059;-31
2023/01/17 04:58:13;;;;;;;42.13;19.92;;;;;;;1.63;100.00;98965.84;5090796;28;20081;-31
2023/01/17 05:00:38;;;;;;;36.78;19.38;;;;;;;1.49;100.00;98959.66;5072832;28;20055;-32
2023/01/17 05:03:04;;;;;;;45.05;17.98;;;;;;;1.50;100.00;98973.59;5072346;28;20027;-31
2023/01/17 05:05:30;;;;;;;54.63;21.08;;;;;;;1.61;100.00;98957.31;5072416;28;20024;-32
2023/01/17 05:07:57;;;;;;;128.88;48.47;;;;;;;1.57;100.00;98927.16;5090575;28;20458;-29
2023/01/17 05:10:23;;;;;;;69.78;29.50;;;;;;;1.63;100.00;98931.66;5072313;28;20047;-30
2023/01/17 05:12:57;;;;;;;50.08;22.65;;;;;;;1.77;100.00;98924.72;5090944;28;20065;-29
2023/01/17 05:15:23;;;;;;;58.42;23.20;;;;;;;1.83;100.00;98931.84;5072391;28;20104;-31
2023/01/17 05:17:51;;;;;;;62.95;25.65;;;;;;;1.83;100.00;98910.81;5090491;28;20107;-30
2023/01/17 05:20:16;;;;;;;75.90;29.55;;;;;;;1.80;100.00;98926.97;5090374;28;20062;-29
2023/01/17 05:22:42;;;;;;;84.55;32.03;;;;;;;1.80;100.00;98961.16;5072089;28;20086;-29
2023/01/17 05:25:07;;;;;;;66.50;23.75;;;;;;;1.76;100.00;98967.78;5089980;28;20028;-29
2023/01/17 05:27:33;;;;;;;49.25;19.98;;;;;;;1.59;100.00;98982.97;5072051;28;20032;-29
2023/01/17 05:29:58;;;;;;;49.45;20.63;;;;;;;1.56;100.00;98950.00;5090382;28;20031;-31
2023/01/17 05:32:23;;;;;;;59.08;21.33;;;;;;;1.53;100.00;98952.19;5090155;28;20067;-30
2023/01/17 05:34:49;;;;;;;47.22;21.25;;;;;;;1.54;100.00;98985.38;5071577;28;20125;-28
2023/01/17 05:37:15;;;;;;;53.33;22.77;;;;;;;1.52;100.00;98992.63;5071498;28;20409;-30
2023/01/17 05:39:41;;;;;;;68.45;23.38;;;;;;;1.60;100.00;99001.19;5089904;28;20028;-29
2023/01/17 05:42:06;;;;;;;61.28;24.27;;;;;;;1.64;100.00;99003.47;5090266;28;20020;-29
2023/01/17 05:44:32;;;;;;;52.15;21.05;;;;;;;1.64;100.00;99011.34;5071902;28;20032;-29
2023/01/17 05:46:57;;;;;;;69.75;23.80;;;;;;;1.72;100.00;99005.97;5089953;28;20024;-30
2023/01/17 05:49:23;;;;;;;64.53;25.77;;;;;;;1.75;100.00;99034.50;5089827;28;20081;-31
2023/01/17 05:51:48;;;;;;;86.78;26.50;;;;;;;1.76;100.00;99038.75;5089519;28;20028;-32
2023/01/17 05:54:13;;;;;;;116.90;29.55;;;;;;;1.74;100.00;99007.41;5071341;28;20059;-28
2023/01/17 05:56:39;;;;;;;89.05;28.88;;;;;;;2.04;100.00;99032.75;5071587;28;20016;-28
2023/01/17 05:59:04;;;;;;;62.72;24.88;;;;;;;2.17;100.00;99017.88;5089883;28;20086;-29
2023/01/17 06:01:30;;;;;;;123.50;32.17;;;;;;;2.36;100.00;99036.66;5071246;28;20082;-29
2023/01/17 06:03:55;;;;;;;86.13;29.00;;;;;;;2.44;100.00;99038.34;5089601;28;20503;-27
2023/01/17 06:06:21;;;;;;;83.55;27.45;;;;;;;2.44;100.00;99062.00;5071810;28;20032;-30
2023/01/17 06:08:46;;;;;;;89.10;27.83;;;;;;;2.56;100.00;99068.38;5089343;28;20035;-31
2023/01/17 06:11:11;;;;;;;79.97;28.00;;;;;;;2.50;100.00;99038.38;5089407;28;20043;-30
2023/01/17 06:13:37;;;;;;;96.07;31.17;;;;;;;2.67;100.00;99052.03;5089283;28;20490;-28
2023/01/17 06:16:03;;;;;;;107.97;36.72;;;;;;;2.72;100.00;99025.97;5089306;28;20035;-31
2023/01/17 06:18:29;;;;;;;101.70;31.33;;;;;;;2.74;100.00;99044.22;5089478;28;20020;-28
2023/01/17 06:20:55;;;;;;;104.88;34.72;;;;;;;2.77;100.00;99055.16;5089317;28;20031;-29
2023/01/17 06:23:22;;;;;;;140.38;36.60;;;;;;;2.87;100.00;99040.84;5070888;28;20392;-28
2023/01/17 06:25:48;;;;;;;82.20;28.83;;;;;;;2.73;100.00;99038.13;5071267;28;20028;-28
2023/01/17 06:28:16;;;;;;;98.68;30.13;;;;;;;2.89;100.00;99062.53;5071097;28;20124;-28
2023/01/17 06:30:42;;;;;;;92.85;28.83;;;;;;;2.83;100.00;99052.75;5089657;28;20028;-29
2023/01/17 06:33:08;;;;;;;84.15;28.48;;;;;;;2.78;100.00;99059.44;5089286;28;20089;-27
2023/01/17 06:35:36;;;;;;;76.68;28.60;;;;;;;2.87;100.00;99080.34;5088588;28;20519;-28
2023/01/17 06:38:02;;;;;;;93.97;30.07;;;;;;;3.05;100.00;99112.25;5088893;28;20024;-28
2023/01/17 06:40:28;;;;;;;93.72;28.90;;;;;;;2.99;100.00;99089.31;5070938;28;20020;-29
2023/01/17 06:42:59;;;;;;;95.00;29.52;;;;;;;2.91;100.00;99050.78;5070449;28;20069;-29
2023/01/17 06:45:24;;;;;;;99.50;30.02;;;;;;;3.02;100.00;99057.31;5088909;28;20040;-29
2023/01/17 06:47:49;;;;;;;89.88;29.63;;;;;;;3.11;100.00;99077.25;5089254;28;20032;-28
2023/01/17 06:50:15;;;;;;;90.25;26.25;;;;;;;3.16;100.00;99063.47;5089289;28;20400;-29
2023/01/17 06:52:41;;;;;;;227.95;72.50;;;;;;;3.16;100.00;99053.75;5088616;28;20032;-30
2023/01/17 06:55:08;;;;;;;89.68;29.95;;;;;;;3.29;100.00;99062.72;5089065;28;20024;-28
2023/01/17 06:57:34;;;;;;;90.82;25.77;;;;;;;3.17;100.00;99087.00;5088686;28;20025;-31
2023/01/17 07:00:00;;;;;;;110.60;35.70;;;;;;;3.15;100.00;99082.94;5070893;28;20036;-31
2023/01/17 07:02:25;;;;;;;84.28;26.50;;;;;;;3.11;100.00;99094.88;5088894;28;20480;-28
2023/01/17 07:04:51;;;;;;;99.18;28.20;;;;;;;3.10;100.00;99067.69;5088698;28;20024;-28
2023/01/17 07:07:16;;;;;;;82.53;26.52;;;;;;;3.24;100.00;99076.47;5064338;28;20036;-28
2023/01/17 07:09:42;;;;;;;94.18;29.98;;;;;;;3.36;100.00;99105.75;5088651;28;20066;-30
2023/01/17 07:12:08;;;;;;;113.03;28.88;;;;;;;3.45;100.00;99072.09;5088605;28;20036;-28
2023/01/17 07:14:34;;;;;;;112.93;30.42;;;;;;;3.49;100.00;99046.97;5088724;28;20053;-29
2023/01/17 07:16:59;;;;;;;79.70;26.30;;;;;;;3.67;100.00;99054.34;5088685;28;20101;-30
2023/01/17 07:19:24;;;;;;;108.60;27.80;;;;;;;3.87;100.00;99070.22;5087151;28;20538;-29
2023/01/17 07:21:53;;;;;;;126.05;37.55;;;;;;;4.11;100.00;99061.75;5088484;28;20043;-30
2023/01/17 07:24:20;;;;;;;93.97;30.98;;;;;;;4.07;100.00;99059.72;5070575;28;20028;-30
2023/01/17 07:26:49;;;;;;;115.93;28.55;;;;;;;4.01;100.00;99077.97;5070642;28;20036;-28
2023/01/17 07:29:15;;;;;;;109.78;33.25;;;;;;;3.99;100.00;99077.34;5088443;28;20028;-29
2023/01/17 07:31:40;;;;;;;105.75;27.80;;;;;;;4.02;100.00;99055.00;5070367;28;20043;-30
2023/01/17 07:34:06;;;;;;;100.60;27.90;;;;;;;3.93;100.00;99043.84;5087971;28;20024;-31
2023/01/17 07:36:31;;;;;;;109.50;28.08;;;;;;;4.29;100.00;99069.06;5088085;28;20039;-29
2023/01/17 07:38:56;;;;;;;118.57;29.35;;;;;;;4.33;100.00;99051.81;5088592;28;20497;-27
2023/01/17 07:41:22;;;;;;;130.48;30.20;;;;;;;4.24;100.00;99045.09;5088725;28;20032;-28
2023/01/17 07:43:48;;;;;;;103.25;28.80;;;;;;;4.56;100.00;99053.22;5088689;28;20028;-30
2023/01/17 07:46:16;;;;;;;106.70;28.38;;;;;;;4.63;100.00;99075.13;5088320;28;20047;-29
2023/01/17 07:48:41;;;;;;;102.43;29.88;;;;;;;4.63;100.00;99075.13;5088446;28;20035;-31
2023/01/17 07:51:08;;;;;;;102.50;28.10;;;;;;;4.64;100.00;99060.94;5088171;28;20024;-28
2023/01/17 07:53:35;;;;;;;125.80;29.33;;;;;;;4.68;100.00;99085.09;5070059;28;20050;-28
2023/01/17 07:56:03;;;;;;;83.38;26.33;;;;;;;4.62;100.00;99094.66;5090586;28;20032;-28
2023/01/17 07:58:29;;;;;;;78.57;25.30;;;;;;;4.68;100.00;99078.00;5073699;28;20024;-28
2023/01/17 08:01:01;;;;;;;85.18;26.00;;;;;;;4.65;100.00;99062.53;5092095;28;20506;-30
2023/01/17 08:03:30;;;;;;;102.65;30.02;;;;;;;4.97;100.00;99055.59;5091701;28;20187;-28
2023/01/17 08:05:56;;;;;;;150.20;36.22;;;;;;;5.12;100.00;99063.25;5092058;28;20114;-28
2023/01/17 08:08:22;;;;;;;85.75;26.95;;;;;;;5.22;100.00;99079.50;5073265;28;20114;-29
2023/01/17 08:10:48;;;;;;;96.85;26.50;;;;;;;5.17;100.00;99076.69;5091983;28;20106;-30
2023/01/17 08:13:14;;;;;;;138.63;47.67;;;;;;;5.33;100.00;99069.28;5091562;28;20468;-34
2023/01/17 08:15:39;;;;;;;88.50;29.38;;;;;;;5.27;100.00;99059.56;5092019;28;20032;-29
2023/01/17 08:18:05;;;;;;;92.57;30.27;;;;;;;5.37;100.00;99059.91;5091228;28;20403;-31
2023/01/17 08:20:30;;;;;;;90.47;24.52;;;;;;;5.60;100.00;99048.84;5092120;28;20040;-29
2023/01/17 08:22:56;;;;;;;75.82;26.88;;;;;;;5.49;100.00;99063.53;5091727;28;20023;-29
2023/01/17 08:25:23;;;;;;;97.95;26.88;;;;;;;5.70;100.00;99053.66;5091388;28;20107;-29
2023/01/17 08:27:49;;;;;;;66.32;24.75;;;;;;;5.36;100.00;99059.13;5091729;28;20032;-29
2023/01/17 08:30:15;;;;;;;70.82;23.65;;;;;;;5.52;100.00;99086.94;5091720;28;20035;-27
2023/01/17 08:32:41;;;;;;;72.38;27.98;;;;;;;5.52;100.00;99088.78;5072871;28;20034;-28
2023/01/17 08:35:07;;;;;;;85.55;31.50;;;;;;;5.44;100.00;99068.66;5091011;28;20040;-29
2023/01/17 08:37:33;;;;;;;97.75;41.00;;;;;;;5.59;100.00;99094.81;5090984;28;20028;-28
2023/01/17 08:39:58;;;;;;;81.97;36.97;;;;;;;5.64;100.00;99082.59;5091133;28;20068;-33
2023/01/17 08:42:24;;;;;;;77.82;30.55;;;;;;;5.75;100.00;99082.97;5091578;28;20123;-28
2023/01/17 08:44:49;;;;;;;74.57;29.27;;;;;;;5.80;100.00;99067.25;5091355;28;20032;-29
2023/01/17 08:47:15;;;;;;;64.43;26.60;;;;;;;5.77;100.00;99071.13;5072429;28;20034;-28
2023/01/17 08:49:40;;;;;;;77.65;35.67;;;;;;;5.96;100.00;99071.25;5072916;28;20089;-30
2023/01/17 08:52:06;;;;;;;72.18;33.30;;;;;;;6.09;100.00;99075.66;5072940;28;20024;-28
2023/01/17 08:54:31;;;;;;;94.43;31.17;;;;;;;6.18;100.00;99066.44;5072379;28;20028;-28
2023/01/17 08:56:57;;;;;;;78.50;30.80;;;;;;;6.37;100.00;99081.34;5090466;28;20028;-29
2023/01/17 08:59:22;;;;;;;80.15;33.28;;;;;;;6.29;100.00;99078.97;5090572;28;20413;-34
2023/01/17 09:01:48;;;;;;;78.57;31.92;;;;;;;6.36;100.00;99078.94;5090531;28;20021;-29
2023/01/17 09:04:13;;;;;;;70.85;27.35;;;;;;;6.40;100.00;99088.88;5072722;28;20488;-31
2023/01/17 09:06:41;;;;;;;89.78;31.48;;;;;;;6.35;100.00;99046.34;5090616;28;20024;-29
2023/01/17 09:09:09;;;;;;;74.47;29.42;;;;;;;6.22;100.00;99051.75;5072522;28;20036;-28
2023/01/17 09:11:35;;;;;;;;;;;;;;;6.29;100.00;99068.38;5091040;28;20039;-29
2023/01/17 09:14:01;;;;;;;60.80;25.98;;;;;;;6.30;100.00;99058.63;5090923;28;19916;-29
2023/01/17 09:16:27;;;;;;;60.88;24.70;;;;;;;6.52;100.00;99067.81;5072228;28;20032;-28
2023/01/17 09:18:56;;;;;;;64.63;25.20;;;;;;;6.42;100.00;99068.28;5090677;28;20103;-29
2023/01/17 09:21:22;;;;;;;59.85;23.85;;;;;;;6.31;100.00;99052.28;5090595;28;20046;-28
2023/01/17 09:23:47;;;;;;;55.65;22.38;;;;;;;6.32;100.00;99064.50;5090514;28;20027;-32
2023/01/17 09:26:28;;;;;;;69.38;24.73;;;;;;;6.36;100.00;99047.97;5090445;28;20036;-29
2023/01/17 09:28:54;;;;;;;66.32;24.70;;;;;;;6.37;100.00;99081.34;5071937;28;20479;-30
2023/01/17 09:31:20;;;;;;;67.68;24.92;;;;;;;6.48;100.00;99071.91;5072046;28;20032;-30
2023/01/17 09:33:47;;;;;;;60.40;25.20;;;;;;;6.56;100.00;99079.59;5090317;28;20031;-34
2023/01/17 09:36:13;;;;;;;60.83;23.55;;;;;;;6.54;100.00;99063.09;5090070;28;20055;-30
2023/01/17 09:38:39;;;;;;;68.45;25.40;;;;;;;6.58;100.00;99074.09;5090273;28;20026;-29
2023/01/17 09:41:20;;;;;;;70.18;26.17;;;;;;;6.77;100.00;99069.63;5071865;28;20024;-30
2023/01/17 09:44:21;;;;;;;64.57;26.48;;;;;;;6.88;100.00;99076.03;5072051;28;20020;-29
2023/01/17 09:46:49;;;;;;;61.35;23.92;;;;;;;6.81;100.00;99079.56;5078910;28;20071;-29
2023/01/17 09:49:36;;;;;;;60.85;27.08;;;;;;;6.65;100.00;99077.47;5071433;28;20111;-33
2023/01/17 09:52:03;;;;;;;63.15;29.00;;;;;;;6.76;100.00;99078.59;5090118;28;20548;-30
2023/01/17 09:54:39;;;;;;;66.93;28.42;;;;;;;6.78;100.00;99071.22;5090095;28;20054;-29
2023/01/17 09:57:23;;;;;;;60.05;27.05;;;;;;;6.52;100.00;99051.09;5071414;28;20036;-28
2023/01/17 09:59:58;;;;;;;63.67;27.55;;;;;;;6.98;100.00;99071.03;5071496;28;20407;-29
2023/01/17 10:02:32;;;;;;;60.60;26.20;;;;;;;7.18;100.00;99070.84;5071478;28;20024;-32
2023/01/17 10:05:10;;;;;;;52.17;23.55;;;;;;;7.26;100.00;99062.59;5089697;28;20023;-30
2023/01/17 10:07:46;;;;;;;58.72;24.55;;;;;;;7.15;100.00;99028.84;5089423;28;20035;-32
2023/01/17 10:10:39;;;;;;;52.28;23.83;;;;;;;7.32;100.00;99055.59;5070890;28;20028;-35
2023/01/17 10:13:33;;;;;;;57.13;24.17;;;;;;;7.38;100.00;99042.25;5071290;28;20057;-28
2023/01/17 10:16:36;;;;;;;56.22;23.95;;;;;;;7.59;100.00;99048.91;5089223;28;20097;-31
2023/01/17 10:19:23;;;;;;;73.10;34.70;;;;;;;8.42;100.00;99031.38;5046850;28;20050;-28
2023/01/17 10:21:54;;;;;;;84.35;49.05;;;;;;;13.87;76.88;99026.50;5071117;28;20442;-30
2023/01/17 10:24:57;;;;;;;58.65;28.45;;;;;;;15.62;69.38;99064.63;5070769;28;20032;-30
2023/01/17 10:27:33;;;;;;;102.28;59.95;;;;;;;15.06;70.79;99023.47;5089363;28;20036;-30
2023/01/17 10:30:02;;;;;;;70.03;39.72;;;;;;;12.95;77.90;99031.50;5089298;28;20023;-29
2023/01/17 10:32:32;;;;;;;142.43;70.00;;;;;;;11.17;85.72;99022.44;5068054;28;20046;-33
2023/01/17 10:35:10;;;;;;;66.07;33.42;;;;;;;10.29;92.92;99030.25;5063091;28;20059;-33
2023/01/17 10:37:42;;;;;;;57.05;27.85;;;;;;;9.83;95.18;99032.94;5068595;28;20106;-29
2023/01/17 10:40:49;;;;;;;55.13;28.85;;;;;;;9.34;99.39;99034.41;5051019;28;20047;-31
2023/01/17 10:43:43;;;;;;;62.88;32.65;;;;;;;9.60;97.93;99023.22;4986585;28;20034;-29
2023/01/17 10:46:15;;;;;;;60.70;29.88;;;;;;;9.55;99.38;99014.31;5055224;28;20041;-30
2023/01/17 10:48:44;;;;;;;65.00;32.63;;;;;;;9.40;100.00;99018.31;5050812;28;20025;-29
2023/01/17 10:51:30;;;;;;;59.88;28.10;;;;;;;9.47;99.17;99020.81;5050447;28;20048;-28
2023/01/17 10:54:03;;;;;;;56.30;26.13;;;;;;;9.54;98.97;99024.16;5067336;28;20029;-30
2023/01/17 10:56:29;;;;;;;54.15;26.45;;;;;;;9.47;97.30;98999.53;5066987;28;20123;-31
2023/01/17 10:59:17;;;;;;;52.88;26.40;;;;;;;9.14;100.00;99003.69;5068930;28;20518;-28
2023/01/17 11:01:43;;;;;;;73.20;33.10;;;;;;;9.20;100.00;98999.28;5068771;28;20024;-29
2023/01/17 11:04:20;;;;;;;71.78;32.42;;;;;;;9.16;100.00;98985.66;5050711;28;20431;-30
2023/01/17 11:06:46;;;;;;;65.55;31.63;;;;;;;9.32;100.00;99001.94;5068343;28;20530;-30
2023/01/17 11:09:13;;;;;;;58.00;26.60;;;;;;;9.22;99.36;98992.69;5050658;28;20037;-30
2023/01/17 11:11:51;;;;;;;59.40;31.02;;;;;;;9.27;100.00;99007.13;5068627;28;20024;-30
2023/01/17 11:14:24;;;;;;;53.65;28.30;;;;;;;9.20;99.71;98978.00;5067102;28;20029;-28
2023/01/17 11:17:04;;;;;;;60.45;28.55;;;;;;;9.08;100.00;98978.03;5066975;28;20028;-31
2023/01/17 11:19:35;;;;;;;56.80;28.83;;;;;;;9.54;99.81;98988.75;5068443;28;20023;-31
2023/01/17 11:22:03;;;;;;;51.40;26.80;;;;;;;9.76;99.97;98994.19;5068700;28;20028;-28
2023/01/17 11:24:40;;;;;;;56.30;26.42;;;;;;;9.82;98.76;98985.25;5050281;28;20031;-28
2023/01/17 11:27:21;;;;;;;54.70;27.27;;;;;;;9.83;99.92;98987.69;5068260;28;20060;-28
2023/01/17 11:29:47;;;;;;;160.98;94.70;;;;;;;9.77;99.93;98966.53;5069538;28;20104;-29
2023/01/17 11:32:25;;;;;;;130.57;81.50;;;;;;;9.97;100.00;98990.84;5053917;28;20132;-31
2023/01/17 11:35:05;;;;;;;78.20;50.80;;;;;;;10.59;97.97;98970.50;5070749;28;20459;-30
2023/01/17 11:37:30;;;;;;;54.72;29.73;;;;;;;10.45;97.57;98976.16;5053930;28;20083;-31
2023/01/17 11:40:14;;;;;;;92.72;73.43;;;;;;;10.71;95.25;98979.19;5072102;28;20520;-30
2023/01/17 11:42:39;;;;;;;60.60;42.97;;;;;;;10.39;98.31;98958.47;5070647;28;20033;-33
2023/01/17 11:45:25;;;;;;;46.40;25.70;;;;;;;10.45;97.44;98964.69;5071846;28;20043;-29
2023/01/17 11:48:09;;;;;;;42.70;23.88;;;;;;;10.41;98.46;98966.22;5070622;28;20515;-29
2023/01/17 11:50:52;;;;;;;44.40;24.55;;;;;;;10.17;100.00;98939.72;5071732;28;20029;-28
2023/01/17 11:53:25;;;;;;;42.72;22.45;;;;;;;10.24;100.00;98948.38;5053864;28;20045;-29
2023/01/17 11:56:05;;;;;;;41.95;23.13;;;;;;;10.27;100.00;98961.19;5053666;28;20396;-29
2023/01/17 11:58:42;;;;;;;48.92;25.27;;;;;;;10.30;100.00;98943.13;5071858;28;20047;-29
2023/01/17 12:01:10;;;;;;;45.15;25.40;;;;;;;10.41;100.00;98944.91;5071814;28;20036;-31
2023/01/17 12:03:58;;;;;;;45.42;25.60;;;;;;;10.61;99.63;98950.53;5071299;28;20029;-31
2023/01/17 12:06:23;;;;;;;;;;;;;;;10.61;99.49;98944.38;5071480;28;20047;-31
2023/01/17 12:08:57;;;;;;;56.70;30.60;;;;;;;10.90;100.00;98936.22;5071446;28;19916;-30
2023/01/17 12:11:30;;;;;;;86.95;38.70;;;;;;;10.95;98.00;98930.94;5071202;28;20020;-29
2023/01/17 12:14:19;;;;;;;55.50;26.85;;;;;;;10.70;98.60;98926.91;5071758;28;20029;-28
2023/01/17 12:17:06;;;;;;;48.40;25.33;;;;;;;10.58;99.95;98910.22;5070074;28;20085;-31
2023/01/17 12:20:00;;;;;;;47.17;26.02;;;;;;;10.33;100.00;98900.81;5068714;28;20024;-31
2023/01/17 12:22:46;;;;;;;68.50;41.50;;;;;;;10.51;100.00;98893.59;5088837;28;20055;-30
2023/01/17 12:25:41;;;;;;;59.60;31.55;;;;;;;10.61;100.00;98891.06;5089600;28;20103;-29
2023/01/17 12:28:55;;;;;;;56.80;31.05;;;;;;;10.67;100.00;98884.75;5072657;28;20423;-29
2023/01/17 12:31:56;;;;;;;44.92;22.75;;;;;;;11.49;98.98;98898.94;5002648;28;20064;-36
2023/01/17 12:34:32;;;;;;;40.03;21.55;;;;;;;11.35;97.85;98887.06;5016988;28;20154;-30
2023/01/17 12:37:08;;;;;;;85.00;65.70;;;;;;;11.63;97.92;98905.47;5054265;28;20491;-30
2023/01/17 12:39:45;;;;;;;119.88;94.15;;;;;;;12.22;95.89;98922.53;5072468;28;20028;-30
2023/01/17 12:42:17;;;;;;;115.93;81.68;;;;;;;12.09;96.15;98896.22;5088355;28;20038;-30
2023/01/17 12:44:57;;;;;;;51.35;28.65;;;;;;;11.91;96.80;98889.41;5090513;28;20032;-30
2023/01/17 12:47:23;;;;;;;44.00;23.70;;;;;;;11.98;91.28;98895.34;5072823;28;20036;-29
2023/01/17 12:50:01;;;;;;;52.55;32.90;;;;;;;12.35;91.16;98911.34;5073084;28;20024;-31
2023/01/17 12:52:59;;;;;;;45.97;27.15;;;;;;;12.40;90.55;98908.72;5091000;28;20023;-28
2023/01/17 12:55:45;;;;;;;;;;;;;;;12.51;90.19;98893.53;5067693;28;20044;-29